Portada
METAR-TAF:

METAR-TAF

Aeroports :

Vladikavkaz, Rússia

latitud: 43-12-18N, longitud: 044-36-24E, altitud: 510 m

Observació

L'informe es va fer fa 9 hores i 26 minuts, a les 17:30 UTC
Vent 8 kt del Est
Temperatura 0°C
Humitat 69%
Pressió 1013 hPa
Visibilitat 10 km o més

METAR: URMO 261730Z 10004MPS 9999 NSC 00/M05 Q1013 R09/010070 NOSIG RMK QFE717/0956

Hora: 05:56 (02:56 UTC)

Pronòstic

L'informe es va fer fa 12 hores i 56 minuts, a les 14:00 UTC
Pronòstic vàlid del 26 a les 15 UTC al 26 a les 24 UTC
Vent 6 kt del Est/Nord-Est amb ràfegues de 16 kt
Visibilitat 10 km o més
Núvols disperses a una alçada de 3000 ft

TAF: URMO 261400Z 2615/2624 07003G08MPS 9999 SCT030

Observacions i pronòstics meteorològics de més de 4000 aeroports (METAR i TAF).

Les estacions disponibles són els punts grocs i vermells al mapa.

Posi el ratolí al punt desitjat per veure el nom de l'estació.

Feu clic per veure les observacions i els pronòstics meteorològics.

Per canviar el mapa: feu clic els botons verds amb una creu de color negre per apropar; al botó verd amb un guió per allunyar la imatge; o en les fletxes verdes per a mapes adjacents.


METAR-TAF: